sensor_id;sensor_type;location;lat;lon;timestamp;P1;durP1;ratioP1;P2;durP2;ratioP2
67065;SDS011;53978;43.846;25.952;2023-07-08T00:00:27;4.32;;;2.50;;
67065;SDS011;53978;43.846;25.952;2023-07-08T00:02:52;2.75;;;2.40;;
67065;SDS011;53978;43.846;25.952;2023-07-08T00:05:18;4.60;;;2.42;;
67065;SDS011;53978;43.846;25.952;2023-07-08T00:07:46;3.53;;;2.60;;
67065;SDS011;53978;43.846;25.952;2023-07-08T00:10:16;3.90;;;2.60;;
67065;SDS011;53978;43.846;25.952;2023-07-08T00:12:44;4.38;;;2.53;;
67065;SDS011;53978;43.846;25.952;2023-07-08T00:15:11;8.73;;;2.60;;
67065;SDS011;53978;43.846;25.952;2023-07-08T00:17:37;3.55;;;2.60;;
67065;SDS011;53978;43.846;25.952;2023-07-08T00:20:36;7.45;;;2.72;;
67065;SDS011;53978;43.846;25.952;2023-07-08T00:25:26;4.93;;;2.30;;
67065;SDS011;53978;43.846;25.952;2023-07-08T00:27:52;3.17;;;2.42;;
67065;SDS011;53978;43.846;25.952;2023-07-08T00:30:19;5.65;;;2.50;;
67065;SDS011;53978;43.846;25.952;2023-07-08T00:32:44;2.80;;;2.42;;
67065;SDS011;53978;43.846;25.952;2023-07-08T00:35:10;3.78;;;2.50;;
67065;SDS011;53978;43.846;25.952;2023-07-08T00:37:35;3.00;;;2.35;;
67065;SDS011;53978;43.846;25.952;2023-07-08T00:40:01;3.40;;;2.38;;
67065;SDS011;53978;43.846;25.952;2023-07-08T00:42:28;4.93;;;2.70;;
67065;SDS011;53978;43.846;25.952;2023-07-08T00:44:54;3.08;;;2.63;;
67065;SDS011;53978;43.846;25.952;2023-07-08T00:47:20;2.65;;;2.45;;
67065;SDS011;53978;43.846;25.952;2023-07-08T00:49:49;5.38;;;2.60;;
67065;SDS011;53978;43.846;25.952;2023-07-08T00:54:45;3.13;;;2.30;;
67065;SDS011;53978;43.846;25.952;2023-07-08T00:57:10;4.75;;;2.65;;
67065;SDS011;53978;43.846;25.952;2023-07-08T00:59:38;2.88;;;2.28;;
67065;SDS011;53978;43.846;25.952;2023-07-08T01:02:05;3.15;;;2.50;;
67065;SDS011;53978;43.846;25.952;2023-07-08T01:04:33;3.85;;;2.55;;
67065;SDS011;53978;43.846;25.952;2023-07-08T01:07:04;2.72;;;2.30;;
67065;SDS011;53978;43.846;25.952;2023-07-08T01:09:33;3.05;;;2.40;;
67065;SDS011;53978;43.846;25.952;2023-07-08T01:12:01;2.40;;;2.20;;
67065;SDS011;53978;43.846;25.952;2023-07-08T01:14:29;6.00;;;2.72;;
67065;SDS011;53978;43.846;25.952;2023-07-08T01:16:57;3.55;;;2.03;;
67065;SDS011;53978;43.846;25.952;2023-07-08T01:19:22;4.03;;;2.28;;
67065;SDS011;53978;43.846;25.952;2023-07-08T01:24:24;2.85;;;2.55;;
67065;SDS011;53978;43.846;25.952;2023-07-08T01:26:50;3.25;;;2.50;;
67065;SDS011;53978;43.846;25.952;2023-07-08T01:29:15;6.95;;;2.65;;
67065;SDS011;53978;43.846;25.952;2023-07-08T01:31:41;5.30;;;2.50;;
67065;SDS011;53978;43.846;25.952;2023-07-08T01:34:10;5.20;;;2.60;;
67065;SDS011;53978;43.846;25.952;2023-07-08T01:36:39;6.65;;;2.60;;
67065;SDS011;53978;43.846;25.952;2023-07-08T01:39:09;3.20;;;2.40;;
67065;SDS011;53978;43.846;25.952;2023-07-08T01:41:37;6.03;;;2.85;;
67065;SDS011;53978;43.846;25.952;2023-07-08T01:44:03;5.93;;;2.78;;
67065;SDS011;53978;43.846;25.952;2023-07-08T01:46:28;3.08;;;2.78;;
67065;SDS011;53978;43.846;25.952;2023-07-08T01:48:56;9.07;;;3.83;;
67065;SDS011;53978;43.846;25.952;2023-07-08T01:51:22;4.07;;;2.83;;
67065;SDS011;53978;43.846;25.952;2023-07-08T01:53:48;4.85;;;2.53;;
67065;SDS011;53978;43.846;25.952;2023-07-08T01:56:13;3.72;;;2.60;;
67065;SDS011;53978;43.846;25.952;2023-07-08T01:58:39;5.78;;;2.92;;
67065;SDS011;53978;43.846;25.952;2023-07-08T02:01:05;4.95;;;2.90;;
67065;SDS011;53978;43.846;25.952;2023-07-08T02:03:30;4.55;;;2.80;;
67065;SDS011;53978;43.846;25.952;2023-07-08T02:05:56;9.57;;;3.40;;
67065;SDS011;53978;43.846;25.952;2023-07-08T02:08:21;4.65;;;2.80;;
67065;SDS011;53978;43.846;25.952;2023-07-08T02:10:51;5.43;;;3.35;;
67065;SDS011;53978;43.846;25.952;2023-07-08T02:13:19;4.85;;;2.80;;
67065;SDS011;53978;43.846;25.952;2023-07-08T02:15:45;4.05;;;3.03;;
67065;SDS011;53978;43.846;25.952;2023-07-08T02:18:11;7.05;;;3.20;;
67065;SDS011;53978;43.846;25.952;2023-07-08T02:20:36;3.95;;;3.13;;
67065;SDS011;53978;43.846;25.952;2023-07-08T02:23:01;7.88;;;3.50;;
67065;SDS011;53978;43.846;25.952;2023-07-08T02:25:27;8.07;;;3.30;;
67065;SDS011;53978;43.846;25.952;2023-07-08T02:27:53;6.07;;;3.58;;
67065;SDS011;53978;43.846;25.952;2023-07-08T02:30:22;7.50;;;3.10;;
67065;SDS011;53978;43.846;25.952;2023-07-08T02:32:51;3.92;;;3.35;;
67065;SDS011;53978;43.846;25.952;2023-07-08T02:35:25;3.65;;;3.25;;
67065;SDS011;53978;43.846;25.952;2023-07-08T02:37:56;3.88;;;2.85;;
67065;SDS011;53978;43.846;25.952;2023-07-08T02:40:22;5.45;;;3.38;;
67065;SDS011;53978;43.846;25.952;2023-07-08T02:42:48;5.25;;;3.28;;
67065;SDS011;53978;43.846;25.952;2023-07-08T02:45:14;6.47;;;3.38;;
67065;SDS011;53978;43.846;25.952;2023-07-08T02:47:40;4.55;;;3.33;;
67065;SDS011;53978;43.846;25.952;2023-07-08T02:50:06;7.82;;;3.40;;
67065;SDS011;53978;43.846;25.952;2023-07-08T02:52:33;7.32;;;3.65;;
67065;SDS011;53978;43.846;25.952;2023-07-08T02:54:59;5.80;;;3.47;;
67065;SDS011;53978;43.846;25.952;2023-07-08T02:57:24;7.20;;;3.70;;
67065;SDS011;53978;43.846;25.952;2023-07-08T02:59:49;11.48;;;3.95;;
67065;SDS011;53978;43.846;25.952;2023-07-08T03:02:15;6.45;;;3.33;;
67065;SDS011;53978;43.846;25.952;2023-07-08T03:04:40;6.18;;;3.53;;
67065;SDS011;53978;43.846;25.952;2023-07-08T03:07:07;4.28;;;3.28;;
67065;SDS011;53978;43.846;25.952;2023-07-08T03:09:36;9.25;;;3.63;;
67065;SDS011;53978;43.846;25.952;2023-07-08T03:12:06;4.65;;;3.65;;
67065;SDS011;53978;43.846;25.952;2023-07-08T03:14:32;4.18;;;3.28;;
67065;SDS011;53978;43.846;25.952;2023-07-08T03:16:58;6.07;;;3.50;;
67065;SDS011;53978;43.846;25.952;2023-07-08T03:19:23;7.70;;;3.85;;
67065;SDS011;53978;43.846;25.952;2023-07-08T03:21:48;5.30;;;3.38;;
67065;SDS011;53978;43.846;25.952;2023-07-08T03:24:14;5.68;;;3.53;;
67065;SDS011;53978;43.846;25.952;2023-07-08T03:26:43;9.27;;;4.20;;
67065;SDS011;53978;43.846;25.952;2023-07-08T03:29:15;7.25;;;3.78;;
67065;SDS011;53978;43.846;25.952;2023-07-08T03:31:41;3.90;;;3.30;;
67065;SDS011;53978;43.846;25.952;2023-07-08T03:34:09;5.90;;;3.78;;
67065;SDS011;53978;43.846;25.952;2023-07-08T03:36:35;7.05;;;3.90;;
67065;SDS011;53978;43.846;25.952;2023-07-08T03:39:05;7.32;;;4.57;;
67065;SDS011;53978;43.846;25.952;2023-07-08T03:41:31;5.43;;;3.78;;
67065;SDS011;53978;43.846;25.952;2023-07-08T03:43:56;5.25;;;3.83;;
67065;SDS011;53978;43.846;25.952;2023-07-08T03:46:21;8.13;;;4.20;;
67065;SDS011;53978;43.846;25.952;2023-07-08T03:48:48;7.57;;;4.30;;
67065;SDS011;53978;43.846;25.952;2023-07-08T03:51:17;7.43;;;4.20;;
67065;SDS011;53978;43.846;25.952;2023-07-08T03:53:46;8.32;;;4.22;;
67065;SDS011;53978;43.846;25.952;2023-07-08T03:56:12;10.75;;;4.43;;
67065;SDS011;53978;43.846;25.952;2023-07-08T03:58:38;17.08;;;4.47;;
67065;SDS011;53978;43.846;25.952;2023-07-08T04:01:03;8.30;;;6.18;;
67065;SDS011;53978;43.846;25.952;2023-07-08T04:03:29;8.13;;;5.03;;
67065;SDS011;53978;43.846;25.952;2023-07-08T04:05:55;6.45;;;4.10;;
67065;SDS011;53978;43.846;25.952;2023-07-08T04:08:20;7.82;;;4.28;;
67065;SDS011;53978;43.846;25.952;2023-07-08T04:10:46;6.70;;;3.90;;
67065;SDS011;53978;43.846;25.952;2023-07-08T04:13:12;6.13;;;4.10;;
67065;SDS011;53978;43.846;25.952;2023-07-08T04:15:37;5.82;;;4.15;;
67065;SDS011;53978;43.846;25.952;2023-07-08T04:18:02;3.95;;;3.35;;
67065;SDS011;53978;43.846;25.952;2023-07-08T04:20:28;7.80;;;4.03;;
67065;SDS011;53978;43.846;25.952;2023-07-08T04:22:53;5.93;;;3.83;;
67065;SDS011;53978;43.846;25.952;2023-07-08T04:25:19;10.18;;;4.50;;
67065;SDS011;53978;43.846;25.952;2023-07-08T04:27:44;5.38;;;4.13;;
67065;SDS011;53978;43.846;25.952;2023-07-08T04:30:23;5.65;;;3.97;;
67065;SDS011;53978;43.846;25.952;2023-07-08T04:32:51;8.68;;;4.00;;
67065;SDS011;53978;43.846;25.952;2023-07-08T04:35:16;6.03;;;4.35;;
67065;SDS011;53978;43.846;25.952;2023-07-08T04:37:42;6.72;;;4.15;;
67065;SDS011;53978;43.846;25.952;2023-07-08T04:40:12;6.72;;;4.15;;
67065;SDS011;53978;43.846;25.952;2023-07-08T04:42:43;8.45;;;4.50;;
67065;SDS011;53978;43.846;25.952;2023-07-08T04:45:10;6.50;;;4.78;;
67065;SDS011;53978;43.846;25.952;2023-07-08T04:47:35;7.07;;;4.97;;
67065;SDS011;53978;43.846;25.952;2023-07-08T04:50:01;9.70;;;5.03;;
67065;SDS011;53978;43.846;25.952;2023-07-08T04:52:26;6.40;;;4.32;;
67065;SDS011;53978;43.846;25.952;2023-07-08T04:54:51;7.22;;;4.53;;
67065;SDS011;53978;43.846;25.952;2023-07-08T04:57:17;8.02;;;4.32;;
67065;SDS011;53978;43.846;25.952;2023-07-08T04:59:42;7.80;;;4.60;;
67065;SDS011;53978;43.846;25.952;2023-07-08T05:02:08;10.43;;;4.47;;
67065;SDS011;53978;43.846;25.952;2023-07-08T05:04:33;6.75;;;4.55;;
67065;SDS011;53978;43.846;25.952;2023-07-08T05:06:59;5.10;;;4.18;;
67065;SDS011;53978;43.846;25.952;2023-07-08T05:09:24;5.22;;;4.45;;
67065;SDS011;53978;43.846;25.952;2023-07-08T05:11:51;12.55;;;4.68;;
67065;SDS011;53978;43.846;25.952;2023-07-08T05:14:16;6.18;;;4.22;;
67065;SDS011;53978;43.846;25.952;2023-07-08T05:16:42;5.97;;;4.93;;
67065;SDS011;53978;43.846;25.952;2023-07-08T05:19:07;5.55;;;4.75;;
67065;SDS011;53978;43.846;25.952;2023-07-08T05:21:33;8.18;;;4.78;;
67065;SDS011;53978;43.846;25.952;2023-07-08T05:24:03;9.25;;;5.13;;
67065;SDS011;53978;43.846;25.952;2023-07-08T05:26:29;6.50;;;5.00;;
67065;SDS011;53978;43.846;25.952;2023-07-08T05:28:55;10.07;;;5.68;;
67065;SDS011;53978;43.846;25.952;2023-07-08T05:31:21;6.95;;;5.07;;
67065;SDS011;53978;43.846;25.952;2023-07-08T05:33:46;7.68;;;4.90;;
67065;SDS011;53978;43.846;25.952;2023-07-08T05:36:12;11.73;;;5.10;;
67065;SDS011;53978;43.846;25.952;2023-07-08T05:38:37;9.82;;;5.10;;
67065;SDS011;53978;43.846;25.952;2023-07-08T05:41:03;5.78;;;4.75;;
67065;SDS011;53978;43.846;25.952;2023-07-08T05:43:28;6.88;;;5.15;;
67065;SDS011;53978;43.846;25.952;2023-07-08T05:45:58;6.90;;;4.93;;
67065;SDS011;53978;43.846;25.952;2023-07-08T05:48:24;6.57;;;5.00;;
67065;SDS011;53978;43.846;25.952;2023-07-08T05:50:50;9.57;;;4.85;;
67065;SDS011;53978;43.846;25.952;2023-07-08T05:53:17;7.07;;;4.60;;
67065;SDS011;53978;43.846;25.952;2023-07-08T05:55:43;7.70;;;4.65;;
67065;SDS011;53978;43.846;25.952;2023-07-08T05:58:09;9.90;;;5.28;;
67065;SDS011;53978;43.846;25.952;2023-07-08T06:00:35;6.75;;;4.97;;
67065;SDS011;53978;43.846;25.952;2023-07-08T06:03:00;6.88;;;4.85;;
67065;SDS011;53978;43.846;25.952;2023-07-08T06:05:26;6.32;;;5.07;;
67065;SDS011;53978;43.846;25.952;2023-07-08T06:07:51;7.38;;;5.10;;
67065;SDS011;53978;43.846;25.952;2023-07-08T06:10:17;7.55;;;5.28;;
67065;SDS011;53978;43.846;25.952;2023-07-08T06:12:42;6.30;;;5.05;;
67065;SDS011;53978;43.846;25.952;2023-07-08T06:15:07;7.90;;;5.43;;
67065;SDS011;53978;43.846;25.952;2023-07-08T06:17:33;7.18;;;5.07;;
67065;SDS011;53978;43.846;25.952;2023-07-08T06:19:58;11.98;;;5.07;;
67065;SDS011;53978;43.846;25.952;2023-07-08T06:22:24;14.20;;;5.50;;
67065;SDS011;53978;43.846;25.952;2023-07-08T06:24:49;10.07;;;5.93;;
67065;SDS011;53978;43.846;25.952;2023-07-08T06:27:15;7.90;;;5.95;;
67065;SDS011;53978;43.846;25.952;2023-07-08T06:29:40;11.23;;;5.78;;
67065;SDS011;53978;43.846;25.952;2023-07-08T06:32:06;6.22;;;5.50;;
67065;SDS011;53978;43.846;25.952;2023-07-08T06:34:32;10.52;;;5.50;;
67065;SDS011;53978;43.846;25.952;2023-07-08T06:36:57;9.50;;;5.45;;
67065;SDS011;53978;43.846;25.952;2023-07-08T06:39:23;7.72;;;5.15;;
67065;SDS011;53978;43.846;25.952;2023-07-08T06:41:48;7.18;;;4.40;;
67065;SDS011;53978;43.846;25.952;2023-07-08T06:44:13;8.65;;;4.20;;
67065;SDS011;53978;43.846;25.952;2023-07-08T06:46:39;6.38;;;4.35;;
67065;SDS011;53978;43.846;25.952;2023-07-08T06:49:04;6.40;;;4.50;;
67065;SDS011;53978;43.846;25.952;2023-07-08T06:51:33;6.20;;;4.25;;
67065;SDS011;53978;43.846;25.952;2023-07-08T06:53:59;7.05;;;4.18;;
67065;SDS011;53978;43.846;25.952;2023-07-08T06:56:25;6.28;;;4.68;;
67065;SDS011;53978;43.846;25.952;2023-07-08T06:58:50;9.20;;;6.28;;
67065;SDS011;53978;43.846;25.952;2023-07-08T07:01:15;9.68;;;5.63;;
67065;SDS011;53978;43.846;25.952;2023-07-08T07:03:41;6.00;;;4.68;;
67065;SDS011;53978;43.846;25.952;2023-07-08T07:06:06;10.68;;;6.05;;
67065;SDS011;53978;43.846;25.952;2023-07-08T07:08:31;8.18;;;5.25;;
67065;SDS011;53978;43.846;25.952;2023-07-08T07:10:57;6.60;;;4.20;;
67065;SDS011;53978;43.846;25.952;2023-07-08T07:13:22;4.80;;;3.30;;
67065;SDS011;53978;43.846;25.952;2023-07-08T07:15:48;4.38;;;3.30;;
67065;SDS011;53978;43.846;25.952;2023-07-08T07:18:14;4.05;;;3.30;;
67065;SDS011;53978;43.846;25.952;2023-07-08T07:20:46;5.80;;;3.35;;
67065;SDS011;53978;43.846;25.952;2023-07-08T07:23:13;5.80;;;3.47;;
67065;SDS011;53978;43.846;25.952;2023-07-08T07:25:39;3.33;;;2.63;;
67065;SDS011;53978;43.846;25.952;2023-07-08T07:28:04;2.38;;;2.10;;
67065;SDS011;53978;43.846;25.952;2023-07-08T07:30:30;4.95;;;2.38;;
67065;SDS011;53978;43.846;25.952;2023-07-08T07:32:58;4.72;;;3.20;;
67065;SDS011;53978;43.846;25.952;2023-07-08T07:35:25;1.70;;;1.60;;
67065;SDS011;53978;43.846;25.952;2023-07-08T07:37:50;2.42;;;2.00;;
67065;SDS011;53978;43.846;25.952;2023-07-08T07:40:16;5.45;;;2.05;;
67065;SDS011;53978;43.846;25.952;2023-07-08T07:42:42;5.70;;;3.13;;
67065;SDS011;53978;43.846;25.952;2023-07-08T07:45:08;2.75;;;1.63;;
67065;SDS011;53978;43.846;25.952;2023-07-08T07:47:34;8.45;;;3.13;;
67065;SDS011;53978;43.846;25.952;2023-07-08T07:50:00;6.10;;;3.30;;
67065;SDS011;53978;43.846;25.952;2023-07-08T07:52:27;4.10;;;3.10;;
67065;SDS011;53978;43.846;25.952;2023-07-08T07:54:52;5.03;;;2.80;;
67065;SDS011;53978;43.846;25.952;2023-07-08T07:57:18;14.48;;;7.55;;
67065;SDS011;53978;43.846;25.952;2023-07-08T07:59:44;4.88;;;3.10;;
67065;SDS011;53978;43.846;25.952;2023-07-08T08:02:11;9.05;;;3.80;;
67065;SDS011;53978;43.846;25.952;2023-07-08T08:04:36;5.03;;;3.30;;
67065;SDS011;53978;43.846;25.952;2023-07-08T08:07:02;7.32;;;4.57;;
67065;SDS011;53978;43.846;25.952;2023-07-08T08:09:28;3.08;;;2.72;;
67065;SDS011;53978;43.846;25.952;2023-07-08T08:11:53;4.10;;;2.13;;
67065;SDS011;53978;43.846;25.952;2023-07-08T08:14:19;2.70;;;2.20;;
67065;SDS011;53978;43.846;25.952;2023-07-08T08:16:45;2.75;;;2.50;;
67065;SDS011;53978;43.846;25.952;2023-07-08T08:19:10;6.45;;;2.90;;
67065;SDS011;53978;43.846;25.952;2023-07-08T08:21:36;6.68;;;4.20;;
67065;SDS011;53978;43.846;25.952;2023-07-08T08:24:01;3.97;;;2.60;;
67065;SDS011;53978;43.846;25.952;2023-07-08T08:26:27;3.15;;;2.70;;
67065;SDS011;53978;43.846;25.952;2023-07-08T08:28:52;3.30;;;2.72;;
67065;SDS011;53978;43.846;25.952;2023-07-08T08:31:17;2.70;;;2.50;;
67065;SDS011;53978;43.846;25.952;2023-07-08T08:33:43;4.35;;;2.30;;
67065;SDS011;53978;43.846;25.952;2023-07-08T08:36:08;3.30;;;2.30;;
67065;SDS011;53978;43.846;25.952;2023-07-08T08:38:34;2.53;;;2.22;;
67065;SDS011;53978;43.846;25.952;2023-07-08T08:41:02;5.03;;;1.95;;
67065;SDS011;53978;43.846;25.952;2023-07-08T08:43:31;1.88;;;1.77;;
67065;SDS011;53978;43.846;25.952;2023-07-08T08:48:35;3.88;;;2.60;;
67065;SDS011;53978;43.846;25.952;2023-07-08T08:51:06;3.65;;;1.48;;
67065;SDS011;53978;43.846;25.952;2023-07-08T08:53:34;4.15;;;1.70;;
67065;SDS011;53978;43.846;25.952;2023-07-08T08:56:09;1.58;;;1.48;;
67065;SDS011;53978;43.846;25.952;2023-07-08T08:58:42;3.17;;;1.60;;
67065;SDS011;53978;43.846;25.952;2023-07-08T09:01:13;2.17;;;2.00;;
67065;SDS011;53978;43.846;25.952;2023-07-08T09:06:26;6.13;;;3.35;;
67065;SDS011;53978;43.846;25.952;2023-07-08T09:08:52;3.45;;;2.10;;
67065;SDS011;53978;43.846;25.952;2023-07-08T09:13:57;2.85;;;1.50;;
67065;SDS011;53978;43.846;25.952;2023-07-08T09:19:07;6.40;;;1.77;;
67065;SDS011;53978;43.846;25.952;2023-07-08T09:21:37;8.40;;;1.67;;
67065;SDS011;53978;43.846;25.952;2023-07-08T09:24:15;3.30;;;1.48;;
67065;SDS011;53978;43.846;25.952;2023-07-08T09:26:43;4.95;;;1.38;;
67065;SDS011;53978;43.846;25.952;2023-07-08T09:29:10;11.98;;;1.75;;
67065;SDS011;53978;43.846;25.952;2023-07-08T09:31:37;3.30;;;1.20;;
67065;SDS011;53978;43.846;25.952;2023-07-08T09:36:43;5.78;;;2.08;;
67065;SDS011;53978;43.846;25.952;2023-07-08T09:39:11;10.48;;;1.80;;
67065;SDS011;53978;43.846;25.952;2023-07-08T09:41:38;13.10;;;2.05;;
67065;SDS011;53978;43.846;25.952;2023-07-08T09:44:05;7.75;;;1.92;;
67065;SDS011;53978;43.846;25.952;2023-07-08T09:46:35;11.20;;;1.77;;
67065;SDS011;53978;43.846;25.952;2023-07-08T09:49:08;7.40;;;1.73;;
67065;SDS011;53978;43.846;25.952;2023-07-08T09:51:38;18.15;;;2.30;;
67065;SDS011;53978;43.846;25.952;2023-07-08T09:54:03;15.77;;;2.60;;
67065;SDS011;53978;43.846;25.952;2023-07-08T09:56:29;1.88;;;1.60;;
67065;SDS011;53978;43.846;25.952;2023-07-08T09:58:55;1.70;;;1.40;;
67065;SDS011;53978;43.846;25.952;2023-07-08T10:01:22;6.07;;;1.30;;
67065;SDS011;53978;43.846;25.952;2023-07-08T10:03:49;3.15;;;1.50;;
67065;SDS011;53978;43.846;25.952;2023-07-08T10:06:26;8.77;;;1.45;;
67065;SDS011;53978;43.846;25.952;2023-07-08T10:08:54;2.60;;;1.30;;
67065;SDS011;53978;43.846;25.952;2023-07-08T10:11:24;3.25;;;1.27;;
67065;SDS011;53978;43.846;25.952;2023-07-08T10:13:52;3.45;;;1.52;;
67065;SDS011;53978;43.846;25.952;2023-07-08T10:18:57;9.50;;;2.10;;
67065;SDS011;53978;43.846;25.952;2023-07-08T10:26:57;2.15;;;1.30;;
67065;SDS011;53978;43.846;25.952;2023-07-08T10:29:35;2.20;;;1.48;;
67065;SDS011;53978;43.846;25.952;2023-07-08T10:35:00;5.28;;;2.15;;
67065;SDS011;53978;43.846;25.952;2023-07-08T11:05:10;2.08;;;1.52;;
67065;SDS011;53978;43.846;25.952;2023-07-08T11:10:47;2.28;;;1.77;;
67065;SDS011;53978;43.846;25.952;2023-07-08T11:13:17;1.95;;;1.73;;
67065;SDS011;53978;43.846;25.952;2023-07-08T11:21:26;2.13;;;1.92;;
67065;SDS011;53978;43.846;25.952;2023-07-08T11:23:58;3.60;;;2.10;;
67065;SDS011;53978;43.846;25.952;2023-07-08T11:26:30;2.17;;;2.00;;
67065;SDS011;53978;43.846;25.952;2023-07-08T11:28:59;3.80;;;1.92;;
67065;SDS011;53978;43.846;25.952;2023-07-08T11:31:27;3.65;;;2.10;;
67065;SDS011;53978;43.846;25.952;2023-07-08T11:33:55;2.20;;;2.00;;
67065;SDS011;53978;43.846;25.952;2023-07-08T11:36:22;2.42;;;2.22;;
67065;SDS011;53978;43.846;25.952;2023-07-08T11:38:48;8.40;;;2.40;;
67065;SDS011;53978;43.846;25.952;2023-07-08T11:41:16;3.10;;;2.17;;
67065;SDS011;53978;43.846;25.952;2023-07-08T11:43:47;3.15;;;2.00;;
67065;SDS011;53978;43.846;25.952;2023-07-08T11:46:18;2.28;;;1.85;;
67065;SDS011;53978;43.846;25.952;2023-07-08T11:48:46;2.38;;;2.05;;
67065;SDS011;53978;43.846;25.952;2023-07-08T11:51:16;4.72;;;2.00;;
67065;SDS011;53978;43.846;25.952;2023-07-08T11:53:47;2.20;;;2.00;;
67065;SDS011;53978;43.846;25.952;2023-07-08T12:01:22;5.07;;;2.17;;
67065;SDS011;53978;43.846;25.952;2023-07-08T12:12:10;4.72;;;2.70;;
67065;SDS011;53978;43.846;25.952;2023-07-08T12:14:41;3.72;;;2.47;;
67065;SDS011;53978;43.846;25.952;2023-07-08T12:17:10;2.92;;;2.58;;
67065;SDS011;53978;43.846;25.952;2023-07-08T12:19:37;4.13;;;2.20;;
67065;SDS011;53978;43.846;25.952;2023-07-08T12:22:07;2.40;;;2.20;;
67065;SDS011;53978;43.846;25.952;2023-07-08T12:24:33;2.95;;;2.58;;
67065;SDS011;53978;43.846;25.952;2023-07-08T12:26:59;3.85;;;2.65;;
67065;SDS011;53978;43.846;25.952;2023-07-08T12:29:24;4.50;;;2.65;;
67065;SDS011;53978;43.846;25.952;2023-07-08T12:31:50;7.72;;;2.45;;
67065;SDS011;53978;43.846;25.952;2023-07-08T12:34:16;4.32;;;2.15;;
67065;SDS011;53978;43.846;25.952;2023-07-08T12:36:45;2.38;;;2.00;;
67065;SDS011;53978;43.846;25.952;2023-07-08T12:39:11;3.30;;;2.20;;
67065;SDS011;53978;43.846;25.952;2023-07-08T12:41:42;8.18;;;2.15;;
67065;SDS011;53978;43.846;25.952;2023-07-08T12:44:27;2.58;;;2.30;;
67065;SDS011;53978;43.846;25.952;2023-07-08T12:46:53;7.47;;;2.40;;
67065;SDS011;53978;43.846;25.952;2023-07-08T12:49:19;2.80;;;2.05;;
67065;SDS011;53978;43.846;25.952;2023-07-08T12:51:45;4.50;;;2.25;;
67065;SDS011;53978;43.846;25.952;2023-07-08T12:54:12;2.55;;;2.05;;
67065;SDS011;53978;43.846;25.952;2023-07-08T12:56:38;5.07;;;2.30;;
67065;SDS011;53978;43.846;25.952;2023-07-08T12:59:05;4.93;;;2.15;;
67065;SDS011;53978;43.846;25.952;2023-07-08T13:01:31;4.10;;;2.25;;
67065;SDS011;53978;43.846;25.952;2023-07-08T13:03:59;5.07;;;2.10;;
67065;SDS011;53978;43.846;25.952;2023-07-08T13:06:35;4.35;;;2.30;;
67065;SDS011;53978;43.846;25.952;2023-07-08T13:09:46;9.20;;;2.30;;
67065;SDS011;53978;43.846;25.952;2023-07-08T13:11:56;4.53;;;2.47;;
67065;SDS011;53978;43.846;25.952;2023-07-08T13:14:22;6.70;;;2.38;;
67065;SDS011;53978;43.846;25.952;2023-07-08T13:16:49;2.95;;;2.10;;
67065;SDS011;53978;43.846;25.952;2023-07-08T13:19:15;5.75;;;2.20;;
67065;SDS011;53978;43.846;25.952;2023-07-08T13:21:40;4.40;;;1.80;;
67065;SDS011;53978;43.846;25.952;2023-07-08T13:24:09;3.83;;;2.20;;
67065;SDS011;53978;43.846;25.952;2023-07-08T13:26:36;3.83;;;2.10;;
67065;SDS011;53978;43.846;25.952;2023-07-08T13:29:09;2.83;;;2.33;;
67065;SDS011;53978;43.846;25.952;2023-07-08T13:31:37;3.33;;;2.20;;
67065;SDS011;53978;43.846;25.952;2023-07-08T13:34:14;2.72;;;2.22;;
67065;SDS011;53978;43.846;25.952;2023-07-08T13:36:44;3.28;;;2.22;;
67065;SDS011;53978;43.846;25.952;2023-07-08T13:39:15;10.15;;;2.50;;
67065;SDS011;53978;43.846;25.952;2023-07-08T13:41:44;3.90;;;2.28;;
67065;SDS011;53978;43.846;25.952;2023-07-08T13:44:10;3.53;;;1.90;;
67065;SDS011;53978;43.846;25.952;2023-07-08T13:46:36;2.60;;;2.00;;
67065;SDS011;53978;43.846;25.952;2023-07-08T13:49:11;4.07;;;1.92;;
67065;SDS011;53978;43.846;25.952;2023-07-08T13:51:39;2.63;;;2.03;;
67065;SDS011;53978;43.846;25.952;2023-07-08T13:54:25;3.55;;;2.20;;
67065;SDS011;53978;43.846;25.952;2023-07-08T13:57:01;3.65;;;1.90;;
67065;SDS011;53978;43.846;25.952;2023-07-08T13:59:27;2.45;;;1.95;;
67065;SDS011;53978;43.846;25.952;2023-07-08T14:01:54;6.30;;;1.90;;
67065;SDS011;53978;43.846;25.952;2023-07-08T14:04:25;1.92;;;1.83;;
67065;SDS011;53978;43.846;25.952;2023-07-08T14:06:53;3.63;;;1.83;;
67065;SDS011;53978;43.846;25.952;2023-07-08T14:09:20;2.63;;;2.10;;
67065;SDS011;53978;43.846;25.952;2023-07-08T14:11:46;2.55;;;1.95;;
67065;SDS011;53978;43.846;25.952;2023-07-08T14:14:13;1.85;;;1.65;;
67065;SDS011;53978;43.846;25.952;2023-07-08T14:16:44;2.13;;;1.92;;
67065;SDS011;53978;43.846;25.952;2023-07-08T14:19:18;4.25;;;1.98;;
67065;SDS011;53978;43.846;25.952;2023-07-08T14:21:46;3.30;;;1.98;;
67065;SDS011;53978;43.846;25.952;2023-07-08T14:24:14;5.03;;;2.20;;
67065;SDS011;53978;43.846;25.952;2023-07-08T14:26:43;2.80;;;2.25;;
67065;SDS011;53978;43.846;25.952;2023-07-08T14:29:09;2.25;;;2.05;;
67065;SDS011;53978;43.846;25.952;2023-07-08T14:31:35;2.95;;;2.50;;
67065;SDS011;53978;43.846;25.952;2023-07-08T14:34:07;2.95;;;2.05;;
67065;SDS011;53978;43.846;25.952;2023-07-08T14:36:36;2.83;;;1.98;;
67065;SDS011;53978;43.846;25.952;2023-07-08T14:39:07;2.50;;;2.05;;
67065;SDS011;53978;43.846;25.952;2023-07-08T14:41:38;3.42;;;2.40;;
67065;SDS011;53978;43.846;25.952;2023-07-08T14:46:45;13.65;;;3.70;;
67065;SDS011;53978;43.846;25.952;2023-07-08T14:49:20;5.85;;;2.22;;
67065;SDS011;53978;43.846;25.952;2023-07-08T14:51:46;2.58;;;1.90;;
67065;SDS011;53978;43.846;25.952;2023-07-08T14:54:12;3.55;;;2.25;;
67065;SDS011;53978;43.846;25.952;2023-07-08T14:56:37;4.22;;;1.90;;
67065;SDS011;53978;43.846;25.952;2023-07-08T14:59:03;2.30;;;1.70;;
67065;SDS011;53978;43.846;25.952;2023-07-08T15:01:29;2.50;;;1.70;;
67065;SDS011;53978;43.846;25.952;2023-07-08T15:03:56;3.58;;;1.88;;
67065;SDS011;53978;43.846;25.952;2023-07-08T15:06:23;1.95;;;1.75;;
67065;SDS011;53978;43.846;25.952;2023-07-08T15:08:48;5.18;;;2.00;;
67065;SDS011;53978;43.846;25.952;2023-07-08T15:11:14;4.13;;;1.95;;
67065;SDS011;53978;43.846;25.952;2023-07-08T15:13:40;2.00;;;1.85;;
67065;SDS011;53978;43.846;25.952;2023-07-08T15:16:10;2.72;;;1.75;;
67065;SDS011;53978;43.846;25.952;2023-07-08T15:18:38;2.72;;;2.10;;
67065;SDS011;53978;43.846;25.952;2023-07-08T15:21:03;4.10;;;2.28;;
67065;SDS011;53978;43.846;25.952;2023-07-08T15:23:29;3.92;;;1.95;;
67065;SDS011;53978;43.846;25.952;2023-07-08T15:25:54;5.00;;;2.00;;
67065;SDS011;53978;43.846;25.952;2023-07-08T15:28:25;2.05;;;1.80;;
67065;SDS011;53978;43.846;25.952;2023-07-08T15:31:14;4.35;;;1.95;;
67065;SDS011;53978;43.846;25.952;2023-07-08T15:33:42;3.88;;;2.00;;
67065;SDS011;53978;43.846;25.952;2023-07-08T15:36:09;4.47;;;1.55;;
67065;SDS011;53978;43.846;25.952;2023-07-08T15:38:36;4.70;;;1.90;;
67065;SDS011;53978;43.846;25.952;2023-07-08T15:41:01;3.63;;;1.80;;
67065;SDS011;53978;43.846;25.952;2023-07-08T15:43:29;3.40;;;1.95;;
67065;SDS011;53978;43.846;25.952;2023-07-08T15:45:54;4.22;;;2.13;;
67065;SDS011;53978;43.846;25.952;2023-07-08T15:48:20;3.83;;;2.17;;
67065;SDS011;53978;43.846;25.952;2023-07-08T15:50:46;2.65;;;2.05;;
67065;SDS011;53978;43.846;25.952;2023-07-08T15:53:13;8.77;;;2.42;;
67065;SDS011;53978;43.846;25.952;2023-07-08T15:55:40;6.70;;;2.05;;
67065;SDS011;53978;43.846;25.952;2023-07-08T15:58:10;12.95;;;2.65;;